sensor_id;sensor_type;location;lat;lon;timestamp;temperature;humidity
46590;DHT22;32313;48.722;9.362;2023-06-05T00:00:07;10.80;99.90
46590;DHT22;32313;48.722;9.362;2023-06-05T00:02:40;10.80;99.90
46590;DHT22;32313;48.722;9.362;2023-06-05T00:05:06;10.70;99.90
46590;DHT22;32313;48.722;9.362;2023-06-05T00:07:35;10.60;99.90
46590;DHT22;32313;48.722;9.362;2023-06-05T00:10:07;10.50;99.90
46590;DHT22;32313;48.722;9.362;2023-06-05T00:12:34;10.50;99.90
46590;DHT22;32313;48.722;9.362;2023-06-05T00:15:00;10.40;99.90
46590;DHT22;32313;48.722;9.362;2023-06-05T00:17:27;10.30;99.90
46590;DHT22;32313;48.722;9.362;2023-06-05T00:19:53;10.20;99.90
46590;DHT22;32313;48.722;9.362;2023-06-05T00:22:19;10.20;99.90
46590;DHT22;32313;48.722;9.362;2023-06-05T00:24:45;10.20;99.90
46590;DHT22;32313;48.722;9.362;2023-06-05T00:27:10;10.20;99.90
46590;DHT22;32313;48.722;9.362;2023-06-05T00:29:36;10.30;99.90
46590;DHT22;32313;48.722;9.362;2023-06-05T00:32:02;10.30;99.90
46590;DHT22;32313;48.722;9.362;2023-06-05T00:34:28;10.20;99.90
46590;DHT22;32313;48.722;9.362;2023-06-05T00:36:53;10.20;99.90
46590;DHT22;32313;48.722;9.362;2023-06-05T00:39:20;10.20;99.90
46590;DHT22;32313;48.722;9.362;2023-06-05T00:41:47;10.10;99.90
46590;DHT22;32313;48.722;9.362;2023-06-05T00:44:13;10.00;99.90
46590;DHT22;32313;48.722;9.362;2023-06-05T00:46:39;9.90;99.90
46590;DHT22;32313;48.722;9.362;2023-06-05T00:49:06;9.90;99.90
46590;DHT22;32313;48.722;9.362;2023-06-05T00:51:32;9.80;99.90
46590;DHT22;32313;48.722;9.362;2023-06-05T00:53:58;9.70;99.90
46590;DHT22;32313;48.722;9.362;2023-06-05T00:56:25;9.60;99.90
46590;DHT22;32313;48.722;9.362;2023-06-05T00:58:53;9.60;99.90
46590;DHT22;32313;48.722;9.362;2023-06-05T01:01:18;9.50;99.90
46590;DHT22;32313;48.722;9.362;2023-06-05T01:03:46;9.50;99.90
46590;DHT22;32313;48.722;9.362;2023-06-05T01:06:13;9.50;99.90
46590;DHT22;32313;48.722;9.362;2023-06-05T01:08:42;9.50;99.90
46590;DHT22;32313;48.722;9.362;2023-06-05T01:11:19;9.50;99.90
46590;DHT22;32313;48.722;9.362;2023-06-05T01:14:19;9.50;99.90
46590;DHT22;32313;48.722;9.362;2023-06-05T01:16:52;9.50;99.90
46590;DHT22;32313;48.722;9.362;2023-06-05T01:19:23;9.40;99.90
46590;DHT22;32313;48.722;9.362;2023-06-05T01:21:55;9.40;99.90
46590;DHT22;32313;48.722;9.362;2023-06-05T01:24:21;9.30;99.90
46590;DHT22;32313;48.722;9.362;2023-06-05T01:27:05;9.20;99.90
46590;DHT22;32313;48.722;9.362;2023-06-05T01:29:59;9.10;99.90
46590;DHT22;32313;48.722;9.362;2023-06-05T01:32:50;9.10;99.90
46590;DHT22;32313;48.722;9.362;2023-06-05T01:35:20;9.20;99.90
46590;DHT22;32313;48.722;9.362;2023-06-05T01:37:50;9.20;99.90
46590;DHT22;32313;48.722;9.362;2023-06-05T01:40:20;9.20;99.90
46590;DHT22;32313;48.722;9.362;2023-06-05T01:42:47;9.20;99.90
46590;DHT22;32313;48.722;9.362;2023-06-05T01:45:14;9.10;99.90
46590;DHT22;32313;48.722;9.362;2023-06-05T01:47:42;9.10;99.90
46590;DHT22;32313;48.722;9.362;2023-06-05T01:50:09;9.10;99.90
46590;DHT22;32313;48.722;9.362;2023-06-05T01:52:40;9.00;99.90
46590;DHT22;32313;48.722;9.362;2023-06-05T01:55:15;9.00;99.90
46590;DHT22;32313;48.722;9.362;2023-06-05T01:57:42;9.00;99.90
46590;DHT22;32313;48.722;9.362;2023-06-05T02:00:09;9.10;99.90
46590;DHT22;32313;48.722;9.362;2023-06-05T02:02:46;9.10;99.90
46590;DHT22;32313;48.722;9.362;2023-06-05T02:05:14;9.00;99.90
46590;DHT22;32313;48.722;9.362;2023-06-05T02:07:41;9.00;99.90
46590;DHT22;32313;48.722;9.362;2023-06-05T02:10:08;8.90;99.90
46590;DHT22;32313;48.722;9.362;2023-06-05T02:12:35;8.80;99.90
46590;DHT22;32313;48.722;9.362;2023-06-05T02:15:03;8.70;99.90
46590;DHT22;32313;48.722;9.362;2023-06-05T02:17:29;8.70;99.90
46590;DHT22;32313;48.722;9.362;2023-06-05T02:19:56;8.70;99.90
46590;DHT22;32313;48.722;9.362;2023-06-05T02:22:22;8.70;99.90
46590;DHT22;32313;48.722;9.362;2023-06-05T02:24:49;8.70;99.90
46590;DHT22;32313;48.722;9.362;2023-06-05T02:27:20;8.70;99.90
46590;DHT22;32313;48.722;9.362;2023-06-05T02:29:49;8.70;99.90
46590;DHT22;32313;48.722;9.362;2023-06-05T02:32:15;8.70;99.90
46590;DHT22;32313;48.722;9.362;2023-06-05T02:34:41;8.70;99.90
46590;DHT22;32313;48.722;9.362;2023-06-05T02:37:07;8.60;99.90
46590;DHT22;32313;48.722;9.362;2023-06-05T02:39:34;8.60;99.90
46590;DHT22;32313;48.722;9.362;2023-06-05T02:42:00;8.50;99.90
46590;DHT22;32313;48.722;9.362;2023-06-05T02:44:26;8.50;99.90
46590;DHT22;32313;48.722;9.362;2023-06-05T02:46:52;8.40;99.90
46590;DHT22;32313;48.722;9.362;2023-06-05T02:49:19;8.30;99.90
46590;DHT22;32313;48.722;9.362;2023-06-05T02:51:44;8.20;99.90
46590;DHT22;32313;48.722;9.362;2023-06-05T02:54:11;8.20;99.90
46590;DHT22;32313;48.722;9.362;2023-06-05T02:56:39;8.30;99.90
46590;DHT22;32313;48.722;9.362;2023-06-05T02:59:05;8.30;99.90
46590;DHT22;32313;48.722;9.362;2023-06-05T03:01:34;8.30;99.90
46590;DHT22;32313;48.722;9.362;2023-06-05T03:04:04;8.20;99.90
46590;DHT22;32313;48.722;9.362;2023-06-05T03:06:32;8.20;99.90
46590;DHT22;32313;48.722;9.362;2023-06-05T03:09:03;8.20;99.90
46590;DHT22;32313;48.722;9.362;2023-06-05T03:11:29;8.10;99.90
46590;DHT22;32313;48.722;9.362;2023-06-05T03:13:55;8.10;99.90
46590;DHT22;32313;48.722;9.362;2023-06-05T03:16:23;8.10;99.90
46590;DHT22;32313;48.722;9.362;2023-06-05T03:18:52;8.00;99.90
46590;DHT22;32313;48.722;9.362;2023-06-05T03:21:20;7.90;99.90
46590;DHT22;32313;48.722;9.362;2023-06-05T03:23:46;7.90;99.90
46590;DHT22;32313;48.722;9.362;2023-06-05T03:26:13;8.00;99.90
46590;DHT22;32313;48.722;9.362;2023-06-05T03:28:40;7.90;99.90
46590;DHT22;32313;48.722;9.362;2023-06-05T03:31:09;7.80;99.90
46590;DHT22;32313;48.722;9.362;2023-06-05T03:33:39;7.80;99.90
46590;DHT22;32313;48.722;9.362;2023-06-05T03:36:05;7.80;99.90
46590;DHT22;32313;48.722;9.362;2023-06-05T03:38:33;7.80;99.90
46590;DHT22;32313;48.722;9.362;2023-06-05T03:40:59;7.90;99.90
46590;DHT22;32313;48.722;9.362;2023-06-05T03:43:25;7.90;99.90
46590;DHT22;32313;48.722;9.362;2023-06-05T03:45:51;7.90;99.90
46590;DHT22;32313;48.722;9.362;2023-06-05T03:48:19;7.80;99.90
46590;DHT22;32313;48.722;9.362;2023-06-05T03:50:46;7.80;99.90
46590;DHT22;32313;48.722;9.362;2023-06-05T03:53:13;7.90;99.90
46590;DHT22;32313;48.722;9.362;2023-06-05T03:55:40;8.00;99.90
46590;DHT22;32313;48.722;9.362;2023-06-05T03:58:24;8.10;99.90
46590;DHT22;32313;48.722;9.362;2023-06-05T04:00:53;8.10;99.90
46590;DHT22;32313;48.722;9.362;2023-06-05T04:03:19;8.20;99.90
46590;DHT22;32313;48.722;9.362;2023-06-05T04:05:48;8.30;99.90
46590;DHT22;32313;48.722;9.362;2023-06-05T04:08:15;8.30;99.90
46590;DHT22;32313;48.722;9.362;2023-06-05T04:10:40;8.20;99.90
46590;DHT22;32313;48.722;9.362;2023-06-05T04:13:06;8.20;99.90
46590;DHT22;32313;48.722;9.362;2023-06-05T04:15:34;8.20;99.90
46590;DHT22;32313;48.722;9.362;2023-06-05T04:18:02;8.20;99.90
46590;DHT22;32313;48.722;9.362;2023-06-05T04:20:28;8.30;99.90
46590;DHT22;32313;48.722;9.362;2023-06-05T04:22:55;8.40;99.90
46590;DHT22;32313;48.722;9.362;2023-06-05T04:25:21;8.50;99.90
46590;DHT22;32313;48.722;9.362;2023-06-05T04:27:50;8.50;99.90
46590;DHT22;32313;48.722;9.362;2023-06-05T04:30:17;8.60;99.90
46590;DHT22;32313;48.722;9.362;2023-06-05T04:32:43;8.70;99.90
46590;DHT22;32313;48.722;9.362;2023-06-05T04:35:23;8.70;99.90
46590;DHT22;32313;48.722;9.362;2023-06-05T04:37:49;8.80;99.90
46590;DHT22;32313;48.722;9.362;2023-06-05T04:40:17;8.90;99.90
46590;DHT22;32313;48.722;9.362;2023-06-05T04:42:45;9.00;99.90
46590;DHT22;32313;48.722;9.362;2023-06-05T04:45:12;9.10;99.90
46590;DHT22;32313;48.722;9.362;2023-06-05T04:47:42;9.20;99.90
46590;DHT22;32313;48.722;9.362;2023-06-05T04:50:36;9.30;99.90
46590;DHT22;32313;48.722;9.362;2023-06-05T04:53:06;9.50;99.90
46590;DHT22;32313;48.722;9.362;2023-06-05T04:55:34;9.70;99.90
46590;DHT22;32313;48.722;9.362;2023-06-05T04:58:00;9.80;99.90
46590;DHT22;32313;48.722;9.362;2023-06-05T05:00:27;9.90;99.90
46590;DHT22;32313;48.722;9.362;2023-06-05T05:02:53;10.00;99.90
46590;DHT22;32313;48.722;9.362;2023-06-05T05:05:22;10.10;99.90
46590;DHT22;32313;48.722;9.362;2023-06-05T05:07:51;10.20;99.90
46590;DHT22;32313;48.722;9.362;2023-06-05T05:10:17;10.20;99.90
46590;DHT22;32313;48.722;9.362;2023-06-05T05:12:44;10.40;99.90
46590;DHT22;32313;48.722;9.362;2023-06-05T05:15:10;10.50;99.90
46590;DHT22;32313;48.722;9.362;2023-06-05T05:17:37;10.70;99.90
46590;DHT22;32313;48.722;9.362;2023-06-05T05:20:04;10.80;99.90
46590;DHT22;32313;48.722;9.362;2023-06-05T05:22:33;10.90;99.90
46590;DHT22;32313;48.722;9.362;2023-06-05T05:24:59;11.00;99.90
46590;DHT22;32313;48.722;9.362;2023-06-05T05:27:25;11.10;99.90
46590;DHT22;32313;48.722;9.362;2023-06-05T05:29:51;11.20;99.90
46590;DHT22;32313;48.722;9.362;2023-06-05T05:32:18;11.30;99.90
46590;DHT22;32313;48.722;9.362;2023-06-05T05:34:44;11.50;99.90
46590;DHT22;32313;48.722;9.362;2023-06-05T05:37:10;11.70;99.90
46590;DHT22;32313;48.722;9.362;2023-06-05T05:39:36;11.80;99.90
46590;DHT22;32313;48.722;9.362;2023-06-05T05:42:02;11.90;99.90
46590;DHT22;32313;48.722;9.362;2023-06-05T05:44:28;12.10;99.90
46590;DHT22;32313;48.722;9.362;2023-06-05T05:46:54;12.20;99.90
46590;DHT22;32313;48.722;9.362;2023-06-05T05:49:19;12.30;99.90
46590;DHT22;32313;48.722;9.362;2023-06-05T05:51:45;12.40;99.90
46590;DHT22;32313;48.722;9.362;2023-06-05T05:54:11;12.60;99.90
46590;DHT22;32313;48.722;9.362;2023-06-05T05:56:37;12.70;99.90
46590;DHT22;32313;48.722;9.362;2023-06-05T05:59:03;12.90;99.90
46590;DHT22;32313;48.722;9.362;2023-06-05T06:01:29;13.00;99.90
46590;DHT22;32313;48.722;9.362;2023-06-05T06:03:55;13.10;99.90
46590;DHT22;32313;48.722;9.362;2023-06-05T06:06:21;13.30;99.90
46590;DHT22;32313;48.722;9.362;2023-06-05T06:08:46;13.50;99.90
46590;DHT22;32313;48.722;9.362;2023-06-05T06:11:12;13.60;99.90
46590;DHT22;32313;48.722;9.362;2023-06-05T06:13:38;13.80;99.90
46590;DHT22;32313;48.722;9.362;2023-06-05T06:16:04;13.90;99.90
46590;DHT22;32313;48.722;9.362;2023-06-05T06:18:30;14.00;99.90
46590;DHT22;32313;48.722;9.362;2023-06-05T06:20:56;14.20;99.90
46590;DHT22;32313;48.722;9.362;2023-06-05T06:23:21;14.30;99.90
46590;DHT22;32313;48.722;9.362;2023-06-05T06:25:48;14.40;99.90
46590;DHT22;32313;48.722;9.362;2023-06-05T06:28:14;14.50;99.90
46590;DHT22;32313;48.722;9.362;2023-06-05T06:30:40;14.90;99.90
46590;DHT22;32313;48.722;9.362;2023-06-05T06:33:07;15.30;99.90
46590;DHT22;32313;48.722;9.362;2023-06-05T06:35:33;15.60;99.90
46590;DHT22;32313;48.722;9.362;2023-06-05T06:38:00;15.70;99.90
46590;DHT22;32313;48.722;9.362;2023-06-05T06:40:26;15.80;99.90
46590;DHT22;32313;48.722;9.362;2023-06-05T06:42:54;16.20;99.90
46590;DHT22;32313;48.722;9.362;2023-06-05T06:45:43;16.80;99.90
46590;DHT22;32313;48.722;9.362;2023-06-05T06:48:09;17.70;99.90
46590;DHT22;32313;48.722;9.362;2023-06-05T06:50:35;18.40;99.90
46590;DHT22;32313;48.722;9.362;2023-06-05T06:53:01;19.20;99.90
46590;DHT22;32313;48.722;9.362;2023-06-05T06:55:27;19.60;99.90
46590;DHT22;32313;48.722;9.362;2023-06-05T06:57:53;20.00;99.90
46590;DHT22;32313;48.722;9.362;2023-06-05T07:00:19;20.20;99.90
46590;DHT22;32313;48.722;9.362;2023-06-05T07:02:45;20.40;99.90
46590;DHT22;32313;48.722;9.362;2023-06-05T07:05:11;21.00;99.90
46590;DHT22;32313;48.722;9.362;2023-06-05T07:07:37;21.30;99.90
46590;DHT22;32313;48.722;9.362;2023-06-05T07:10:03;21.20;99.90
46590;DHT22;32313;48.722;9.362;2023-06-05T07:12:28;21.50;99.90
46590;DHT22;32313;48.722;9.362;2023-06-05T07:14:54;21.80;99.90
46590;DHT22;32313;48.722;9.362;2023-06-05T07:17:20;22.40;99.90
46590;DHT22;32313;48.722;9.362;2023-06-05T07:19:46;22.70;99.20
46590;DHT22;32313;48.722;9.362;2023-06-05T07:22:12;22.70;98.10
46590;DHT22;32313;48.722;9.362;2023-06-05T07:24:38;22.90;97.60
46590;DHT22;32313;48.722;9.362;2023-06-05T07:27:04;23.60;96.80
46590;DHT22;32313;48.722;9.362;2023-06-05T07:29:30;23.80;95.20
46590;DHT22;32313;48.722;9.362;2023-06-05T07:31:58;23.80;93.90
46590;DHT22;32313;48.722;9.362;2023-06-05T07:34:24;23.50;93.10
46590;DHT22;32313;48.722;9.362;2023-06-05T07:36:51;23.40;93.50
46590;DHT22;32313;48.722;9.362;2023-06-05T07:39:19;23.40;93.70
46590;DHT22;32313;48.722;9.362;2023-06-05T07:41:45;23.70;93.30
46590;DHT22;32313;48.722;9.362;2023-06-05T07:44:12;24.00;92.70
46590;DHT22;32313;48.722;9.362;2023-06-05T07:46:42;24.00;92.00
46590;DHT22;32313;48.722;9.362;2023-06-05T07:49:09;24.10;90.60
46590;DHT22;32313;48.722;9.362;2023-06-05T07:51:38;24.40;91.20
46590;DHT22;32313;48.722;9.362;2023-06-05T07:54:10;24.90;88.00
46590;DHT22;32313;48.722;9.362;2023-06-05T07:56:36;25.30;86.40
46590;DHT22;32313;48.722;9.362;2023-06-05T07:59:04;25.60;87.50
46590;DHT22;32313;48.722;9.362;2023-06-05T08:01:32;25.40;86.70
46590;DHT22;32313;48.722;9.362;2023-06-05T08:04:05;25.30;86.30
46590;DHT22;32313;48.722;9.362;2023-06-05T08:06:32;25.50;86.30
46590;DHT22;32313;48.722;9.362;2023-06-05T08:09:01;26.00;85.00
46590;DHT22;32313;48.722;9.362;2023-06-05T08:11:27;26.40;82.70
46590;DHT22;32313;48.722;9.362;2023-06-05T08:13:54;26.50;80.30
46590;DHT22;32313;48.722;9.362;2023-06-05T08:16:21;26.60;81.60
46590;DHT22;32313;48.722;9.362;2023-06-05T08:18:47;26.90;81.80
46590;DHT22;32313;48.722;9.362;2023-06-05T08:21:13;27.30;79.60
46590;DHT22;32313;48.722;9.362;2023-06-05T08:23:39;27.60;80.40
46590;DHT22;32313;48.722;9.362;2023-06-05T08:26:05;27.20;79.00
46590;DHT22;32313;48.722;9.362;2023-06-05T08:28:39;26.40;79.70
46590;DHT22;32313;48.722;9.362;2023-06-05T08:31:06;25.80;81.60
46590;DHT22;32313;48.722;9.362;2023-06-05T08:33:36;26.20;82.50
46590;DHT22;32313;48.722;9.362;2023-06-05T08:36:03;26.80;79.40
46590;DHT22;32313;48.722;9.362;2023-06-05T08:38:33;27.10;80.30
46590;DHT22;32313;48.722;9.362;2023-06-05T08:41:03;27.80;78.40
46590;DHT22;32313;48.722;9.362;2023-06-05T08:43:39;28.50;77.50
46590;DHT22;32313;48.722;9.362;2023-06-05T08:46:07;28.50;75.80
46590;DHT22;32313;48.722;9.362;2023-06-05T08:48:38;28.80;74.50
46590;DHT22;32313;48.722;9.362;2023-06-05T08:51:07;28.60;74.00
46590;DHT22;32313;48.722;9.362;2023-06-05T08:53:35;28.30;75.00
46590;DHT22;32313;48.722;9.362;2023-06-05T08:56:04;28.60;73.50
46590;DHT22;32313;48.722;9.362;2023-06-05T08:58:31;28.50;73.80
46590;DHT22;32313;48.722;9.362;2023-06-05T09:00:59;28.70;73.80
46590;DHT22;32313;48.722;9.362;2023-06-05T09:03:25;28.70;73.20
46590;DHT22;32313;48.722;9.362;2023-06-05T09:05:52;29.00;72.10
46590;DHT22;32313;48.722;9.362;2023-06-05T09:08:27;29.00;73.10
46590;DHT22;32313;48.722;9.362;2023-06-05T09:11:22;29.70;72.20
46590;DHT22;32313;48.722;9.362;2023-06-05T09:13:48;29.50;71.10
46590;DHT22;32313;48.722;9.362;2023-06-05T09:16:15;29.00;71.40
46590;DHT22;32313;48.722;9.362;2023-06-05T09:18:58;28.70;72.50
46590;DHT22;32313;48.722;9.362;2023-06-05T09:21:25;28.90;72.20
46590;DHT22;32313;48.722;9.362;2023-06-05T09:24:16;28.20;71.70
46590;DHT22;32313;48.722;9.362;2023-06-05T09:29:12;27.60;73.20
46590;DHT22;32313;48.722;9.362;2023-06-05T09:31:41;27.60;74.80
46590;DHT22;32313;48.722;9.362;2023-06-05T09:34:08;28.10;73.70
46590;DHT22;32313;48.722;9.362;2023-06-05T09:36:33;28.00;72.50
46590;DHT22;32313;48.722;9.362;2023-06-05T09:39:14;27.50;73.40
46590;DHT22;32313;48.722;9.362;2023-06-05T09:41:47;27.10;74.30
46590;DHT22;32313;48.722;9.362;2023-06-05T09:44:14;27.00;73.30
46590;DHT22;32313;48.722;9.362;2023-06-05T09:49:21;27.90;71.20
46590;DHT22;32313;48.722;9.362;2023-06-05T09:51:47;28.00;71.60
46590;DHT22;32313;48.722;9.362;2023-06-05T09:54:13;28.70;69.70
46590;DHT22;32313;48.722;9.362;2023-06-05T09:56:40;29.40;69.80
46590;DHT22;32313;48.722;9.362;2023-06-05T09:59:13;29.70;67.60
46590;DHT22;32313;48.722;9.362;2023-06-05T10:01:42;29.50;67.80
46590;DHT22;32313;48.722;9.362;2023-06-05T10:04:11;29.00;67.80
46590;DHT22;32313;48.722;9.362;2023-06-05T10:06:40;29.60;67.10
46590;DHT22;32313;48.722;9.362;2023-06-05T10:09:08;30.50;64.30
46590;DHT22;32313;48.722;9.362;2023-06-05T10:11:35;31.00;61.10
46590;DHT22;32313;48.722;9.362;2023-06-05T10:14:03;31.40;57.20
46590;DHT22;32313;48.722;9.362;2023-06-05T10:16:29;31.80;57.90
46590;DHT22;32313;48.722;9.362;2023-06-05T10:18:56;31.80;56.00
46590;DHT22;32313;48.722;9.362;2023-06-05T10:21:23;31.90;54.10
46590;DHT22;32313;48.722;9.362;2023-06-05T10:23:57;32.00;54.10
46590;DHT22;32313;48.722;9.362;2023-06-05T10:29:36;32.20;52.20
46590;DHT22;32313;48.722;9.362;2023-06-05T10:40:02;32.40;51.50
46590;DHT22;32313;48.722;9.362;2023-06-05T10:42:30;32.60;52.00
46590;DHT22;32313;48.722;9.362;2023-06-05T10:44:56;32.60;49.80
46590;DHT22;32313;48.722;9.362;2023-06-05T10:52:41;33.20;48.60
46590;DHT22;32313;48.722;9.362;2023-06-05T10:55:08;33.30;48.00
46590;DHT22;32313;48.722;9.362;2023-06-05T11:00:37;34.00;47.30
46590;DHT22;32313;48.722;9.362;2023-06-05T11:03:05;34.20;47.40
46590;DHT22;32313;48.722;9.362;2023-06-05T11:05:32;33.90;47.10
46590;DHT22;32313;48.722;9.362;2023-06-05T11:08:15;32.90;48.50
46590;DHT22;32313;48.722;9.362;2023-06-05T11:13:52;30.80;50.30
46590;DHT22;32313;48.722;9.362;2023-06-05T11:16:34;29.60;51.50
46590;DHT22;32313;48.722;9.362;2023-06-05T11:22:09;28.00;54.90
46590;DHT22;32313;48.722;9.362;2023-06-05T11:24:37;27.50;55.80
46590;DHT22;32313;48.722;9.362;2023-06-05T11:27:04;27.40;56.90
46590;DHT22;32313;48.722;9.362;2023-06-05T11:29:31;27.80;56.30
46590;DHT22;32313;48.722;9.362;2023-06-05T11:31:58;29.00;53.50
46590;DHT22;32313;48.722;9.362;2023-06-05T11:34:24;30.00;51.10
46590;DHT22;32313;48.722;9.362;2023-06-05T11:36:53;30.80;49.20
46590;DHT22;32313;48.722;9.362;2023-06-05T11:39:19;31.40;49.60
46590;DHT22;32313;48.722;9.362;2023-06-05T11:41:46;31.50;48.40
46590;DHT22;32313;48.722;9.362;2023-06-05T11:44:13;30.90;47.30
46590;DHT22;32313;48.722;9.362;2023-06-05T11:46:40;30.20;48.60
46590;DHT22;32313;48.722;9.362;2023-06-05T11:49:08;30.40;49.90
46590;DHT22;32313;48.722;9.362;2023-06-05T11:51:34;31.40;48.40
46590;DHT22;32313;48.722;9.362;2023-06-05T11:54:01;32.10;46.70
46590;DHT22;32313;48.722;9.362;2023-06-05T11:56:27;32.10;46.90
46590;DHT22;32313;48.722;9.362;2023-06-05T11:58:54;31.50;46.80
46590;DHT22;32313;48.722;9.362;2023-06-05T12:01:21;30.80;47.90
46590;DHT22;32313;48.722;9.362;2023-06-05T12:04:15;31.20;46.40
46590;DHT22;32313;48.722;9.362;2023-06-05T12:06:42;32.30;43.20
46590;DHT22;32313;48.722;9.362;2023-06-05T12:09:10;32.60;44.80
46590;DHT22;32313;48.722;9.362;2023-06-05T12:11:36;33.20;44.40
46590;DHT22;32313;48.722;9.362;2023-06-05T12:14:03;33.60;43.00
46590;DHT22;32313;48.722;9.362;2023-06-05T12:16:37;34.00;41.70
46590;DHT22;32313;48.722;9.362;2023-06-05T12:19:23;33.80;39.80
46590;DHT22;32313;48.722;9.362;2023-06-05T12:21:49;33.80;41.30
46590;DHT22;32313;48.722;9.362;2023-06-05T12:24:25;34.20;39.80
46590;DHT22;32313;48.722;9.362;2023-06-05T12:29:27;33.60;40.40
46590;DHT22;32313;48.722;9.362;2023-06-05T12:31:54;32.90;41.00
46590;DHT22;32313;48.722;9.362;2023-06-05T12:34:40;32.40;40.80
46590;DHT22;32313;48.722;9.362;2023-06-05T12:37:11;32.40;40.00
46590;DHT22;32313;48.722;9.362;2023-06-05T12:39:38;33.00;40.00
46590;DHT22;32313;48.722;9.362;2023-06-05T12:42:04;33.10;40.00
46590;DHT22;32313;48.722;9.362;2023-06-05T12:44:30;33.90;40.00
46590;DHT22;32313;48.722;9.362;2023-06-05T12:46:56;34.90;38.70
46590;DHT22;32313;48.722;9.362;2023-06-05T12:49:22;35.00;39.00
46590;DHT22;32313;48.722;9.362;2023-06-05T12:51:48;34.80;37.80
46590;DHT22;32313;48.722;9.362;2023-06-05T12:54:14;33.90;38.70
46590;DHT22;32313;48.722;9.362;2023-06-05T12:56:43;32.90;39.80
46590;DHT22;32313;48.722;9.362;2023-06-05T12:59:11;31.60;41.30
46590;DHT22;32313;48.722;9.362;2023-06-05T13:01:36;30.60;42.50
46590;DHT22;32313;48.722;9.362;2023-06-05T13:04:05;29.90;43.70
46590;DHT22;32313;48.722;9.362;2023-06-05T13:06:30;29.20;44.30
46590;DHT22;32313;48.722;9.362;2023-06-05T13:08:59;29.30;43.80
46590;DHT22;32313;48.722;9.362;2023-06-05T13:11:26;29.90;41.30
46590;DHT22;32313;48.722;9.362;2023-06-05T13:13:52;30.30;40.80
46590;DHT22;32313;48.722;9.362;2023-06-05T13:16:18;30.70;41.60
46590;DHT22;32313;48.722;9.362;2023-06-05T13:18:43;31.60;40.70
46590;DHT22;32313;48.722;9.362;2023-06-05T13:21:09;32.40;40.30
46590;DHT22;32313;48.722;9.362;2023-06-05T13:23:35;33.20;37.60
46590;DHT22;32313;48.722;9.362;2023-06-05T13:26:01;33.00;37.50
46590;DHT22;32313;48.722;9.362;2023-06-05T13:28:28;32.50;40.20
46590;DHT22;32313;48.722;9.362;2023-06-05T13:30:55;32.00;40.20
46590;DHT22;32313;48.722;9.362;2023-06-05T13:33:21;30.90;42.40
46590;DHT22;32313;48.722;9.362;2023-06-05T13:35:48;30.00;44.00
46590;DHT22;32313;48.722;9.362;2023-06-05T13:38:13;29.30;45.40
46590;DHT22;32313;48.722;9.362;2023-06-05T13:40:39;29.70;45.90
46590;DHT22;32313;48.722;9.362;2023-06-05T13:43:08;30.60;44.70
46590;DHT22;32313;48.722;9.362;2023-06-05T13:45:33;31.40;43.50
46590;DHT22;32313;48.722;9.362;2023-06-05T13:47:59;31.90;40.20
46590;DHT22;32313;48.722;9.362;2023-06-05T13:50:25;30.90;41.50
46590;DHT22;32313;48.722;9.362;2023-06-05T13:52:51;30.20;43.20
46590;DHT22;32313;48.722;9.362;2023-06-05T13:55:18;29.80;44.40
46590;DHT22;32313;48.722;9.362;2023-06-05T13:57:43;29.90;45.30
46590;DHT22;32313;48.722;9.362;2023-06-05T14:00:09;29.60;44.90
46590;DHT22;32313;48.722;9.362;2023-06-05T14:02:37;29.10;45.50
46590;DHT22;32313;48.722;9.362;2023-06-05T14:05:03;28.70;45.80
46590;DHT22;32313;48.722;9.362;2023-06-05T14:07:29;29.00;46.50
46590;DHT22;32313;48.722;9.362;2023-06-05T14:09:54;29.70;44.90
46590;DHT22;32313;48.722;9.362;2023-06-05T14:12:20;30.30;44.00
46590;DHT22;32313;48.722;9.362;2023-06-05T14:14:46;30.90;43.90
46590;DHT22;32313;48.722;9.362;2023-06-05T14:17:12;31.50;43.70
46590;DHT22;32313;48.722;9.362;2023-06-05T14:19:38;31.90;42.50
46590;DHT22;32313;48.722;9.362;2023-06-05T14:22:04;32.20;42.00
46590;DHT22;32313;48.722;9.362;2023-06-05T14:24:31;32.50;42.10
46590;DHT22;32313;48.722;9.362;2023-06-05T14:26:57;32.70;42.20
46590;DHT22;32313;48.722;9.362;2023-06-05T14:29:23;32.90;42.00
46590;DHT22;32313;48.722;9.362;2023-06-05T14:31:48;33.10;40.70
46590;DHT22;32313;48.722;9.362;2023-06-05T14:34:14;33.10;41.10
46590;DHT22;32313;48.722;9.362;2023-06-05T14:36:41;33.50;40.80
46590;DHT22;32313;48.722;9.362;2023-06-05T14:39:07;33.40;39.00
46590;DHT22;32313;48.722;9.362;2023-06-05T14:41:33;33.40;38.20
46590;DHT22;32313;48.722;9.362;2023-06-05T14:43:59;33.40;38.10
46590;DHT22;32313;48.722;9.362;2023-06-05T14:46:25;33.50;38.40
46590;DHT22;32313;48.722;9.362;2023-06-05T14:48:50;33.10;38.20
46590;DHT22;32313;48.722;9.362;2023-06-05T14:51:17;33.30;39.90
46590;DHT22;32313;48.722;9.362;2023-06-05T14:53:42;33.60;38.70
46590;DHT22;32313;48.722;9.362;2023-06-05T14:56:09;33.30;39.30
46590;DHT22;32313;48.722;9.362;2023-06-05T14:58:35;33.10;38.50
46590;DHT22;32313;48.722;9.362;2023-06-05T15:01:01;33.30;38.70
46590;DHT22;32313;48.722;9.362;2023-06-05T15:03:27;33.80;38.20
46590;DHT22;32313;48.722;9.362;2023-06-05T15:05:52;34.20;38.20
46590;DHT22;32313;48.722;9.362;2023-06-05T15:08:18;34.10;37.90
46590;DHT22;32313;48.722;9.362;2023-06-05T15:10:45;33.60;38.10
46590;DHT22;32313;48.722;9.362;2023-06-05T15:13:11;33.30;37.60
46590;DHT22;32313;48.722;9.362;2023-06-05T15:15:37;33.40;38.50
46590;DHT22;32313;48.722;9.362;2023-06-05T15:18:03;33.70;37.80
46590;DHT22;32313;48.722;9.362;2023-06-05T15:20:29;33.50;38.10
46590;DHT22;32313;48.722;9.362;2023-06-05T15:22:55;33.10;38.30
46590;DHT22;32313;48.722;9.362;2023-06-05T15:25:21;32.10;39.00
46590;DHT22;32313;48.722;9.362;2023-06-05T15:27:48;31.40;40.60
46590;DHT22;32313;48.722;9.362;2023-06-05T15:30:14;31.40;40.70
46590;DHT22;32313;48.722;9.362;2023-06-05T15:32:40;31.40;40.80
46590;DHT22;32313;48.722;9.362;2023-06-05T15:35:06;31.00;41.10
46590;DHT22;32313;48.722;9.362;2023-06-05T15:37:32;30.20;41.80
46590;DHT22;32313;48.722;9.362;2023-06-05T15:39:58;29.40;42.80
46590;DHT22;32313;48.722;9.362;2023-06-05T15:42:29;28.60;44.00
46590;DHT22;32313;48.722;9.362;2023-06-05T15:45:13;28.50;44.90
46590;DHT22;32313;48.722;9.362;2023-06-05T15:47:41;29.20;44.40
46590;DHT22;32313;48.722;9.362;2023-06-05T15:50:08;30.00;43.60
46590;DHT22;32313;48.722;9.362;2023-06-05T15:52:35;30.40;41.90
46590;DHT22;32313;48.722;9.362;2023-06-05T15:55:01;30.70;41.10
46590;DHT22;32313;48.722;9.362;2023-06-05T15:57:28;30.60;41.40
46590;DHT22;32313;48.722;9.362;2023-06-05T15:59:54;30.60;41.80
46590;DHT22;32313;48.722;9.362;2023-06-05T16:02:20;30.70;41.60
46590;DHT22;32313;48.722;9.362;2023-06-05T16:04:47;30.80;41.50
46590;DHT22;32313;48.722;9.362;2023-06-05T16:07:14;31.10;40.90
46590;DHT22;32313;48.722;9.362;2023-06-05T16:09:40;31.30;40.60
46590;DHT22;32313;48.722;9.362;2023-06-05T16:12:06;31.70;40.50